Blessing Sw — 3FIP7 — position and weather

sailwx.info

Track history (hours):
 
Tides and Currents Weather Stations Pressure Air Temp Water Temp Dewpoint Dewpoint Depression Visibility Wind Speed Wind Dir Waves Ship Positions

Blessing Sw

Last reported at 2016-Nov-24 03:28 UTC. Time now 2016-Dec-08 09:59 UTC.
Position N 38°24' E 121°15'.
Warning: this ship's position is 14 days out of date.

Length 171 m; draft 7.7 m.

Type: Cargo ship. MMSI: 372085000.

Date/timePositionNaut miles runAvg speedWind from/ knotsBaromVisibWave heightAir tempDewpointWater temp
2016-Nov-24 03:28N 38°24' E 121°15'1011.1
2016-Nov-24 02:33N 38°29' E 121°04'1110.6
2016-Nov-24 01:33N 38°34' E 120°53'1010.2
2016-Nov-24 00:33N 38°39' E 120°41'  
2016-Nov-16 07:33N 38°37' E 120°55'1411.2
2016-Nov-16 06:17N 38°30' E 121°11'11 0.4
2016-Nov-15 00:33N 38°31' E 120°58'1012.1
2016-Nov-14 23:43N 38°37' E 120°47'9311.4
2016-Nov-14 15:34N 39°53' E 119°38'2 0.3
2016-Nov-14 08:21N 39°54' E 119°36'  
Track history (hours):
 
Tides and Currents Weather Stations Pressure Air Temp Water Temp Dewpoint Dewpoint Depression Visibility Wind Speed Wind Dir Waves Ship Positions

Blessing Sw

Last reported at 2016-Nov-24 03:28 UTC. Time now 2016-Dec-08 09:59 UTC.
Position N 38°24' E 121°15'.
Warning: this ship's position is 14 days out of date.

Length 171 m; draft 7.7 m.

Type: Cargo ship. MMSI: 372085000.

Date/timePositionNaut miles runAvg speedWind from/ knotsBaromVisibWave heightAir tempDewpointWater temp
2016-Nov-24 03:28N 38°24' E 121°15'1011.1
2016-Nov-24 02:33N 38°29' E 121°04'1110.6
2016-Nov-24 01:33N 38°34' E 120°53'1010.2
2016-Nov-24 00:33N 38°39' E 120°41'  
2016-Nov-16 07:33N 38°37' E 120°55'1411.2
2016-Nov-16 06:17N 38°30' E 121°11'11 0.4
2016-Nov-15 00:33N 38°31' E 120°58'1012.1
2016-Nov-14 23:43N 38°37' E 120°47'9311.4
2016-Nov-14 15:34N 39°53' E 119°38'2 0.3
2016-Nov-14 08:21N 39°54' E 119°36'  

Dump ship's entire track history